Time;durP1;ratioP1;P1;durP2;ratioP2;P2;SDS_P1;SDS_P2;PMS_P1;PMS_P2;Temp;Humidity;BMP_temperature;BMP_pressure;BME280_temperature;BME280_humidity;BME280_pressure;Samples;Min_cycle;Max_cycle;Signal;HPM_P1;HPM_P2
2020/12/13 00:00:13;;;;;;;1.15;1.15;;;2.90;99.90;;;;;;5095655;28;20186;-73
2020/12/13 00:02:39;;;;;;;1.92;1.85;;;3.00;99.90;;;;;;5094439;28;20156;-73
2020/12/13 00:05:06;;;;;;;1.95;1.85;;;2.90;99.90;;;;;;5094367;28;20160;-73
2020/12/13 00:07:33;;;;;;;1.15;1.15;;;2.80;99.90;;;;;;5095583;28;20250;-73
2020/12/13 00:09:59;;;;;;;3.03;1.50;;;2.80;99.90;;;;;;5094248;28;20223;-73
2020/12/13 00:12:25;;;;;;;1.15;1.15;;;2.90;99.90;;;;;;5094199;28;20198;-73
2020/12/13 00:14:51;;;;;;;3.10;2.53;;;2.90;99.90;;;;;;5095665;28;20219;-73
2020/12/13 00:17:17;;;;;;;0.28;0.28;;;2.80;99.90;;;;;;5095565;28;20191;-73
2020/12/13 00:19:43;;;;;;;1.27;1.27;;;2.90;99.90;;;;;;5094969;28;20172;-74
2020/12/13 00:22:09;;;;;;;1.58;1.48;;;2.90;99.90;;;;;;5104512;28;20174;-73
2020/12/13 00:24:35;;;;;;;3.08;2.05;;;2.90;99.90;;;;;;5114231;28;20658;-73
2020/12/13 00:27:01;;;;;;;0.57;0.57;;;2.90;99.90;;;;;;5096776;28;20200;-73
2020/12/13 00:29:27;;;;;;;2.53;2.42;;;2.90;99.90;;;;;;5093622;28;20199;-73
2020/12/13 00:31:53;;;;;;;0.75;0.75;;;3.00;99.90;;;;;;5095532;28;20152;-74
2020/12/13 00:34:19;;;;;;;0.52;0.52;;;2.90;99.90;;;;;;5095485;28;20187;-73
2020/12/13 00:36:50;;;;;;;1.33;1.13;;;3.00;99.90;;;;;;5095425;28;20210;-73
2020/12/13 00:39:16;;;;;;;1.27;1.27;;;3.00;99.90;;;;;;5094150;28;20217;-73
2020/12/13 00:41:47;;;;;;;0.20;0.20;;;3.00;99.90;;;;;;5095224;28;20247;-73
2020/12/13 00:44:13;;;;;;;1.85;1.75;;;3.00;99.90;;;;;;5095388;28;20164;-73
2020/12/13 00:46:39;;;;;;;0.57;0.57;;;3.00;99.90;;;;;;5095424;28;20196;-74
2020/12/13 00:49:05;;;;;;;1.88;1.73;;;3.00;99.90;;;;;;5095416;28;20187;-74
2020/12/13 00:51:31;;;;;;;2.47;2.35;;;3.00;99.90;;;;;;5095463;28;20186;-73
2020/12/13 00:53:57;;;;;;;1.15;1.08;;;3.00;99.90;;;;;;5095494;28;20148;-73
2020/12/13 00:56:23;;;;;;;3.88;2.75;;;3.00;99.90;;;;;;5093999;28;20188;-73
2020/12/13 00:58:49;;;;;;;1.13;1.13;;;3.00;99.90;;;;;;5095342;28;20220;-73
2020/12/13 01:01:14;;;;;;;2.53;2.42;;;3.00;99.90;;;;;;5095041;28;20235;-73
2020/12/13 01:03:40;;;;;;;1.67;1.67;;;3.10;99.90;;;;;;5115619;28;20175;-74
2020/12/13 01:06:06;;;;;;;1.15;1.15;;;3.00;99.90;;;;;;5113150;28;20199;-73
2020/12/13 01:08:33;;;;;;;1.48;1.38;;;3.00;99.90;;;;;;5111064;28;20266;-73
2020/12/13 01:10:59;;;;;;;2.42;1.77;;;3.00;99.90;;;;;;5112368;28;20147;-73
2020/12/13 01:13:25;;;;;;;0.85;0.82;;;3.00;99.90;;;;;;5112335;28;20160;-73
2020/12/13 01:15:53;;;;;;;1.58;1.48;;;3.00;99.90;;;;;;5112236;28;20524;-73
2020/12/13 01:18:20;;;;;;;0.95;0.95;;;3.00;99.90;;;;;;5100580;28;20213;-74
2020/12/13 01:20:46;;;;;;;1.30;1.30;;;2.90;99.90;;;;;;5112230;28;20227;-73
2020/12/13 01:23:12;;;;;;;0.95;0.95;;;2.90;99.90;;;;;;5112229;28;20616;-73
2020/12/13 01:25:38;;;;;;;0.20;0.20;;;2.80;99.90;;;;;;5112124;28;20159;-73
2020/12/13 01:28:04;;;;;;;1.52;1.42;;;2.70;99.90;;;;;;5111899;28;20191;-73
2020/12/13 01:30:31;;;;;;;1.42;1.35;;;2.70;99.90;;;;;;5111696;28;20151;-73
2020/12/13 01:32:57;;;;;;;1.30;1.27;;;2.70;99.90;;;;;;5106024;28;20202;-74
2020/12/13 01:35:25;;;;;;;0.95;0.95;;;2.60;99.90;;;;;;5111951;28;20159;-73
2020/12/13 01:37:53;;;;;;;0.50;0.50;;;2.50;99.90;;;;;;5111639;28;20211;-73
2020/12/13 01:40:19;;;;;;;0.90;0.90;;;2.40;99.90;;;;;;5111687;28;20211;-73
2020/12/13 01:42:45;;;;;;;1.45;1.35;;;2.40;99.90;;;;;;5111701;28;20175;-73
2020/12/13 01:45:20;;;;;;;0.25;0.25;;;2.30;99.90;;;;;;5111769;28;20183;-73
2020/12/13 01:47:51;;;;;;;0.50;0.50;;;2.20;99.90;;;;;;5110210;28;20254;-73
2020/12/13 01:53:15;;;;;;;0.10;0.10;;;2.10;99.90;;;;;;5111705;28;20163;-73
2020/12/13 01:55:45;;;;;;;0.50;0.50;;;2.00;99.90;;;;;;5111549;28;20171;-73
2020/12/13 01:58:24;;;;;;;0.60;0.60;;;2.00;99.90;;;;;;5111493;28;20155;-73
2020/12/13 02:00:54;;;;;;;0.63;0.63;;;2.00;99.90;;;;;;5111409;28;20171;-73
2020/12/13 02:03:24;;;;;;;2.15;2.05;;;1.90;99.90;;;;;;5111456;28;20160;-73
2020/12/13 02:06:06;;;;;;;0.70;0.70;;;2.00;99.90;;;;;;5111257;28;20152;-73
2020/12/13 02:08:40;;;;;;;0.20;0.20;;;1.90;99.90;;;;;;5107016;28;20223;-73
2020/12/13 02:11:10;;;;;;;2.60;1.80;;;1.80;99.90;;;;;;5109954;28;20174;-73
2020/12/13 02:13:37;;;;;;;0.40;0.40;;;1.70;99.90;;;;;;5109767;28;20167;-74
2020/12/13 02:16:05;;;;;;;3.20;1.27;;;1.70;99.90;;;;;;5109671;28;20183;-73
2020/12/13 02:18:31;;;;;;;0.10;0.10;;;1.50;99.90;;;;;;5110795;28;20160;-73
2020/12/13 02:20:57;;;;;;;7.28;3.30;;;1.60;99.90;;;;;;5111018;28;20170;-73
2020/12/13 02:23:23;;;;;;;1.90;1.30;;;1.60;99.90;;;;;;5110963;28;20159;-73
2020/12/13 02:25:50;;;;;;;0.80;0.80;;;1.40;99.90;;;;;;5096840;28;20210;-73
2020/12/13 02:28:16;;;;;;;0.15;0.15;;;1.30;99.90;;;;;;5110777;28;20191;-73
2020/12/13 02:30:42;;;;;;;1.15;1.15;;;1.10;99.90;;;;;;5110886;28;20160;-73
2020/12/13 02:33:09;;;;;;;0.43;0.43;;;1.00;99.90;;;;;;5110868;28;20163;-73
2020/12/13 02:35:34;;;;;;;1.40;1.40;;;0.90;99.90;;;;;;5110822;28;20151;-73
2020/12/13 02:38:00;;;;;;;0.17;0.17;;;0.80;99.90;;;;;;5110710;28;20664;-73
2020/12/13 02:40:26;;;;;;;0.50;0.50;;;0.70;99.90;;;;;;5110386;28;20278;-73
2020/12/13 02:42:52;;;;;;;0.10;0.10;;;0.70;99.90;;;;;;5109409;28;20227;-73
2020/12/13 02:45:18;;;;;;;0.85;0.85;;;0.60;99.90;;;;;;5110402;28;20162;-72
2020/12/13 02:47:44;;;;;;;0.28;0.28;;;0.60;99.90;;;;;;5110510;28;20191;-73
2020/12/13 02:50:10;;;;;;;1.75;1.65;;;0.60;99.90;;;;;;5110409;28;20240;-73
2020/12/13 02:52:35;;;;;;;0.68;0.68;;;0.50;99.90;;;;;;5110449;28;20187;-73
2020/12/13 02:55:01;;;;;;;0.95;0.95;;;0.50;99.90;;;;;;5110503;28;20163;-73
2020/12/13 02:57:27;;;;;;;0.85;0.85;;;0.40;99.90;;;;;;5110264;28;20183;-73
2020/12/13 02:59:53;;;;;;;1.40;1.40;;;0.30;99.90;;;;;;5110360;28;20181;-73
2020/12/13 03:02:19;;;;;;;0.20;0.20;;;0.30;99.90;;;;;;5110288;28;20148;-73
2020/12/13 03:04:45;;;;;;;1.85;1.08;;;0.20;99.90;;;;;;5108857;28;20172;-73
2020/12/13 03:07:11;;;;;;;1.73;1.63;;;0.20;99.90;;;;;;5110152;28;20693;-73
2020/12/13 03:09:37;;;;;;;1.60;1.52;;;0.30;99.90;;;;;;5110171;28;20191;-73
2020/12/13 03:12:04;;;;;;;1.17;1.05;;;0.20;99.90;;;;;;5110051;28;20159;-73
2020/12/13 03:14:31;;;;;;;0.80;0.80;;;0.10;99.90;;;;;;5108817;28;20163;-73
2020/12/13 03:16:57;;;;;;;1.65;1.55;;;0.10;99.90;;;;;;5109849;28;20187;-73
2020/12/13 03:19:23;;;;;;;0.60;0.57;;;0.10;99.90;;;;;;5109906;28;20175;-74
2020/12/13 03:21:49;;;;;;;1.02;1.02;;;0.10;99.90;;;;;;5109937;28;20191;-73
2020/12/13 03:24:15;;;;;;;1.50;1.40;;;-0.10;99.90;;;;;;5108731;28;20171;-73
2020/12/13 03:26:42;;;;;;;0.70;0.63;;;-0.20;99.90;;;;;;5109910;28;20191;-74
2020/12/13 03:29:09;;;;;;;0.40;0.40;;;-0.40;99.90;;;;;;5109044;28;20194;-73
2020/12/13 03:31:35;;;;;;;1.45;1.45;;;-0.20;99.90;;;;;;5109780;28;20156;-73
2020/12/13 03:34:02;;;;;;;0.30;0.30;;;-0.30;99.90;;;;;;5109788;28;20158;-73
2020/12/13 03:36:29;;;;;;;0.30;0.30;;;-0.10;99.90;;;;;;5109742;28;20187;-73
2020/12/13 03:38:55;;;;;;;0.80;0.80;;;-0.10;99.90;;;;;;5109743;28;20161;-73
2020/12/13 03:41:20;;;;;;;1.95;1.85;;;-0.20;99.90;;;;;;5109496;28;20581;-73
2020/12/13 03:43:46;;;;;;;0.63;0.63;;;-0.30;99.90;;;;;;5109548;28;20591;-73
2020/12/13 03:46:12;;;;;;;1.75;1.65;;;-0.20;99.90;;;;;;5109364;28;20197;-73
2020/12/13 03:48:39;;;;;;;1.05;1.05;;;-0.30;99.90;;;;;;5109344;28;20183;-73
2020/12/13 03:51:05;;;;;;;0.20;0.20;;;-0.30;99.90;;;;;;5109327;28;20651;-73
2020/12/13 03:53:31;;;;;;;2.25;2.15;;;-0.40;99.90;;;;;;5109370;28;20159;-73
2020/12/13 03:55:57;;;;;;;0.73;0.73;;;-0.50;99.90;;;;;;5109302;28;20158;-73
2020/12/13 03:58:22;;;;;;;1.30;1.27;;;-0.60;99.90;;;;;;5107969;28;20240;-73
2020/12/13 04:00:48;;;;;;;1.05;1.05;;;-0.40;99.90;;;;;;5109264;28;20219;-73
2020/12/13 04:03:14;;;;;;;0.32;0.32;;;-0.50;99.90;;;;;;5109261;28;20163;-73
2020/12/13 04:05:40;;;;;;;0.20;0.20;;;-0.50;99.90;;;;;;5109295;28;20159;-74
2020/12/13 04:08:06;;;;;;;0.20;0.20;;;-0.40;99.90;;;;;;5108984;28;20191;-73
2020/12/13 04:10:32;;;;;;;0.88;0.88;;;-0.20;99.90;;;;;;5109388;28;20167;-73
2020/12/13 04:12:57;;;;;;;0.20;0.20;;;-0.30;99.90;;;;;;5109212;28;20159;-73
2020/12/13 04:15:23;;;;;;;0.43;0.43;;;-0.40;99.90;;;;;;5109183;28;20159;-73
2020/12/13 04:17:49;;;;;;;1.80;1.70;;;-0.60;99.90;;;;;;5109062;28;20201;-73
2020/12/13 04:20:15;;;;;;;0.40;0.40;;;-0.70;99.90;;;;;;5108821;28;20184;-73
2020/12/13 04:22:41;;;;;;;0.65;0.65;;;-0.60;99.90;;;;;;5107886;28;20182;-73
2020/12/13 04:25:08;;;;;;;0.60;0.60;;;-0.70;99.90;;;;;;5109159;28;20158;-74
2020/12/13 04:27:34;;;;;;;0.25;0.25;;;-0.70;99.90;;;;;;5108934;28;20205;-73
2020/12/13 04:30:00;;;;;;;1.50;1.40;;;-0.60;99.90;;;;;;5109113;28;20215;-73
2020/12/13 04:32:26;;;;;;;0.40;0.40;;;-0.60;99.90;;;;;;5108939;28;20167;-73
2020/12/13 04:34:52;;;;;;;0.95;0.95;;;-0.50;99.90;;;;;;5107773;28;20175;-73
2020/12/13 04:37:18;;;;;;;3.13;2.35;;;-0.30;99.90;;;;;;5108876;28;20194;-73
2020/12/13 04:39:44;;;;;;;3.15;2.95;;;-0.30;99.90;;;;;;5109079;28;20159;-73
2020/12/13 04:42:10;;;;;;;2.95;2.08;;;-0.20;99.90;;;;;;5112222;28;20175;-73
2020/12/13 04:44:37;;;;;;;0.98;0.98;;;-0.30;99.90;;;;;;5112687;28;20156;-73
2020/12/13 04:47:07;;;;;;;1.27;1.27;;;-0.50;99.90;;;;;;5112430;28;20193;-73
2020/12/13 04:49:35;;;;;;;2.30;2.20;;;-0.50;99.90;;;;;;5112479;28;20213;-73
2020/12/13 04:52:04;;;;;;;1.10;1.08;;;-0.70;99.90;;;;;;5112784;28;20156;-73
2020/12/13 04:54:31;;;;;;;0.30;0.30;;;-0.90;99.90;;;;;;5112597;28;20239;-73
2020/12/13 04:56:59;;;;;;;1.33;1.33;;;-1.00;99.90;;;;;;5112393;28;20191;-73
2020/12/13 04:59:26;;;;;;;0.38;0.32;;;-1.10;99.90;;;;;;5111093;28;20168;-73
2020/12/13 05:01:56;;;;;;;0.10;0.10;;;-1.10;99.90;;;;;;5112597;28;20223;-73
2020/12/13 05:04:22;;;;;;;0.28;0.28;;;-1.10;99.90;;;;;;5112428;28;20159;-73
2020/12/13 05:06:48;;;;;;;0.40;0.40;;;-0.90;99.90;;;;;;5112430;28;20206;-73
2020/12/13 05:09:15;;;;;;;0.75;0.75;;;-0.80;99.90;;;;;;5110649;28;20195;-73
2020/12/13 05:11:46;;;;;;;0.22;0.22;;;-0.70;99.90;;;;;;5112289;28;20216;-73
2020/12/13 05:14:12;;;;;;;1.65;1.55;;;-0.70;99.90;;;;;;5110983;28;20569;-73
2020/12/13 05:16:38;;;;;;;0.35;0.35;;;-0.80;99.90;;;;;;5112142;28;20190;-73
2020/12/13 05:19:08;;;;;;;1.08;1.08;;;-0.70;99.90;;;;;;5112048;28;20164;-73
2020/12/13 05:21:36;;;;;;;0.57;0.57;;;-0.60;99.90;;;;;;5112171;28;20167;-73
2020/12/13 05:24:06;;;;;;;3.75;1.65;;;-0.60;99.90;;;;;;5112046;28;20191;-73
2020/12/13 05:26:32;;;;;;;0.30;0.30;;;-0.50;99.90;;;;;;5110837;28;20187;-73
2020/12/13 05:29:03;;;;;;;0.20;0.20;;;-0.40;99.90;;;;;;5111957;28;20204;-73
2020/12/13 05:31:30;;;;;;;0.65;0.65;;;-0.40;99.90;;;;;;5111962;28;20180;-73
2020/12/13 05:34:06;;;;;;;0.50;0.50;;;-0.30;99.90;;;;;;5111815;28;20155;-73
2020/12/13 05:36:38;;;;;;;0.20;0.20;;;-0.20;99.90;;;;;;5111690;28;20198;-73
2020/12/13 05:39:05;;;;;;;0.20;0.20;;;-0.10;99.90;;;;;;5111571;28;20198;-73
2020/12/13 05:41:35;;;;;;;0.50;0.50;;;-0.10;99.90;;;;;;5111496;28;20278;-72
2020/12/13 05:52:24;;;;;;;2.20;2.00;;;-0.10;99.90;;;;;;5117591;28;20251;-73
2020/12/13 05:54:51;;;;;;;0.30;0.30;;;0.00;99.90;;;;;;5111433;28;20163;-73
2020/12/13 05:57:19;;;;;;;1.00;1.00;;;0.00;99.90;;;;;;5110175;28;20215;-73
2020/12/13 05:59:45;;;;;;;1.00;1.00;;;0.10;99.90;;;;;;5109864;28;20176;-73
2020/12/13 06:02:11;;;;;;;0.20;0.20;;;0.30;99.90;;;;;;5111223;28;20219;-72
2020/12/13 06:04:43;;;;;;;0.95;0.95;;;0.40;99.90;;;;;;5110015;28;20218;-72
2020/12/13 06:07:11;;;;;;;0.50;0.50;;;0.40;99.90;;;;;;5111047;28;20191;-72
2020/12/13 06:09:40;;;;;;;0.20;0.20;;;0.50;99.90;;;;;;5110894;28;20643;-72
2020/12/13 06:12:11;;;;;;;0.95;0.95;;;0.50;99.90;;;;;;5110952;28;20215;-72
2020/12/13 06:14:39;;;;;;;0.25;0.25;;;0.60;99.90;;;;;;5110992;28;20204;-72
2020/12/13 06:17:06;;;;;;;0.20;0.20;;;0.70;99.90;;;;;;5110964;28;20205;-72
2020/12/13 06:19:34;;;;;;;0.82;0.82;;;0.70;99.90;;;;;;5110862;28;20189;-72
2020/12/13 06:22:03;;;;;;;0.45;0.45;;;0.70;99.90;;;;;;5110722;28;20166;-72
2020/12/13 06:24:30;;;;;;;1.10;1.10;;;0.70;99.90;;;;;;5110843;28;20151;-72
2020/12/13 06:26:57;;;;;;;1.25;1.23;;;0.70;99.90;;;;;;5110619;28;20191;-72
2020/12/13 06:29:24;;;;;;;0.75;0.75;;;0.70;99.90;;;;;;5110690;28;20193;-72
2020/12/13 06:31:52;;;;;;;0.77;0.77;;;0.80;99.90;;;;;;5110687;28;20151;-72
2020/12/13 06:34:18;;;;;;;0.95;0.95;;;0.70;99.90;;;;;;5110542;28;20183;-72
2020/12/13 06:36:45;;;;;;;0.65;0.65;;;0.70;99.90;;;;;;5110431;28;20240;-72
2020/12/13 06:39:14;;;;;;;0.98;0.93;;;0.70;99.90;;;;;;5110369;28;20162;-73
2020/12/13 06:41:50;;;;;;;0.40;0.40;;;0.70;99.90;;;;;;5110306;28;20219;-73
2020/12/13 06:44:18;;;;;;;0.75;0.75;;;0.70;99.90;;;;;;5110469;28;20174;-73
2020/12/13 06:46:47;;;;;;;0.45;0.45;;;0.70;99.90;;;;;;5110329;28;20255;-73
2020/12/13 06:49:15;;;;;;;0.60;0.60;;;0.70;99.90;;;;;;5110322;28;20187;-72
2020/12/13 06:51:43;;;;;;;0.47;0.47;;;0.80;99.90;;;;;;5110557;28;20159;-72
2020/12/13 06:54:14;;;;;;;0.20;0.20;;;0.70;99.90;;;;;;5109101;28;20235;-72
2020/12/13 06:56:41;;;;;;;1.48;1.48;;;0.70;99.90;;;;;;5108855;28;20195;-73
2020/12/13 06:59:08;;;;;;;1.00;1.00;;;0.70;99.90;;;;;;5108835;28;20221;-73
2020/12/13 07:01:39;;;;;;;1.17;1.17;;;0.80;99.90;;;;;;5108581;28;20171;-73
2020/12/13 07:04:21;;;;;;;1.15;1.05;;;0.80;99.90;;;;;;5109093;28;20219;-73
2020/12/13 07:06:50;;;;;;;0.22;0.22;;;0.70;99.90;;;;;;5109967;28;20199;-73
2020/12/13 07:09:18;;;;;;;1.15;1.13;;;0.70;99.90;;;;;;5109978;28;20183;-73
2020/12/13 07:11:45;;;;;;;0.30;0.30;;;0.70;99.90;;;;;;5108507;28;20163;-74
2020/12/13 07:14:14;;;;;;;0.80;0.80;;;0.80;99.90;;;;;;5108532;28;20171;-73
2020/12/13 07:16:46;;;;;;;0.95;0.93;;;0.80;99.90;;;;;;5109736;28;20195;-73
2020/12/13 07:19:14;;;;;;;1.65;1.55;;;0.80;99.90;;;;;;5109865;28;20159;-73
2020/12/13 07:21:42;;;;;;;1.95;1.83;;;0.90;99.90;;;;;;5109750;28;20236;-73
2020/12/13 07:24:09;;;;;;;0.30;0.30;;;0.90;99.90;;;;;;5109489;28;20313;-73
2020/12/13 07:26:36;;;;;;;0.50;0.50;;;1.00;99.90;;;;;;5109392;28;20187;-73
2020/12/13 07:29:06;;;;;;;0.95;0.95;;;0.90;99.90;;;;;;5109449;28;20208;-73
2020/12/13 07:31:36;;;;;;;0.20;0.20;;;0.90;99.90;;;;;;5109517;28;20288;-73
2020/12/13 07:34:04;;;;;;;0.50;0.50;;;0.80;99.90;;;;;;5108153;28;20239;-73
2020/12/13 07:36:31;;;;;;;0.52;0.52;;;0.90;99.90;;;;;;5109367;28;20206;-73
2020/12/13 07:38:56;;;;;;;2.40;1.33;;;0.90;99.90;;;;;;5109594;28;20160;-73
2020/12/13 07:41:26;;;;;;;0.75;0.75;;;1.00;99.90;;;;;;5109365;28;20230;-73
2020/12/13 07:44:00;;;;;;;1.50;1.50;;;1.10;99.90;;;;;;5109530;28;20233;-74
2020/12/13 07:46:28;;;;;;;0.68;0.68;;;1.20;99.90;;;;;;5109386;28;20197;-73
2020/12/13 07:49:01;;;;;;;0.90;0.90;;;1.20;99.90;;;;;;5109489;28;20209;-74
2020/12/13 07:51:28;;;;;;;0.20;0.20;;;1.10;99.90;;;;;;5108270;28;20167;-73
2020/12/13 07:53:54;;;;;;;1.63;1.63;;;1.20;99.90;;;;;;5109359;28;20162;-73
2020/12/13 07:56:27;;;;;;;0.22;0.22;;;1.20;99.90;;;;;;5109432;28;20183;-73
2020/12/13 07:59:13;;;;;;;0.47;0.47;;;1.40;99.90;;;;;;5107896;28;20171;-73
2020/12/13 08:01:41;;;;;;;0.10;0.10;;;1.40;99.90;;;;;;5109315;28;20159;-73
2020/12/13 08:04:07;;;;;;;0.55;0.55;;;1.40;99.90;;;;;;5108125;28;20171;-73
2020/12/13 08:06:34;;;;;;;0.90;0.90;;;1.40;99.90;;;;;;5109270;28;20197;-74
2020/12/13 08:09:05;;;;;;;0.25;0.25;;;1.40;99.90;;;;;;5109193;28;20191;-73
2020/12/13 08:11:32;;;;;;;0.70;0.70;;;1.50;99.90;;;;;;5109399;28;20156;-73
2020/12/13 08:13:58;;;;;;;0.93;0.93;;;1.50;99.90;;;;;;5109239;28;20159;-73
2020/12/13 08:16:26;;;;;;;2.35;2.25;;;1.50;99.90;;;;;;5111476;28;20187;-73
2020/12/13 08:18:55;;;;;;;2.83;2.63;;;1.50;99.90;;;;;;5113278;28;20183;-73
2020/12/13 08:21:46;;;;;;;1.38;1.38;;;1.50;99.90;;;;;;5112100;28;20163;-73
2020/12/13 08:24:14;;;;;;;0.55;0.55;;;1.50;99.90;;;;;;5113180;28;20554;-73
2020/12/13 08:26:43;;;;;;;0.38;0.38;;;1.70;99.90;;;;;;5113023;28;20195;-73
2020/12/13 08:29:10;;;;;;;1.23;1.23;;;1.80;99.90;;;;;;5113117;28;20188;-73
2020/12/13 08:31:36;;;;;;;0.90;0.90;;;1.70;99.90;;;;;;5113102;28;20156;-73
2020/12/13 08:34:05;;;;;;;0.20;0.20;;;1.60;99.90;;;;;;5112936;28;20223;-73
2020/12/13 08:36:32;;;;;;;0.98;0.98;;;1.70;99.90;;;;;;5112884;28;20207;-73
2020/12/13 08:39:11;;;;;;;1.48;1.38;;;1.70;99.90;;;;;;5113174;28;20170;-73
2020/12/13 08:41:45;;;;;;;0.82;0.82;;;2.00;99.90;;;;;;5112470;28;20223;-73
2020/12/13 08:44:44;;;;;;;0.50;0.50;;;1.90;99.90;;;;;;5111519;28;20179;-73
2020/12/13 08:47:12;;;;;;;0.70;0.70;;;2.10;99.90;;;;;;5110351;28;20218;-73
2020/12/13 08:49:42;;;;;;;1.85;1.75;;;2.30;99.90;;;;;;5093244;28;20219;-73
2020/12/13 08:52:18;;;;;;;1.73;1.70;;;2.30;99.90;;;;;;5093385;28;20246;-73
2020/12/13 08:54:52;;;;;;;0.60;0.60;;;2.50;99.90;;;;;;5110543;28;20151;-73
2020/12/13 08:57:35;;;;;;;0.50;0.50;;;2.60;99.90;;;;;;5110379;28;20795;-73
2020/12/13 09:00:13;;;;;;;2.13;2.00;;;2.50;99.90;;;;;;5110429;28;20163;-73
2020/12/13 09:02:39;;;;;;;1.55;1.45;;;2.50;99.90;;;;;;5110434;28;20179;-73
2020/12/13 09:05:07;;;;;;;9.68;1.85;;;2.30;99.90;;;;;;5110043;28;20176;-73
2020/12/13 09:07:34;;;;;;;1.08;1.08;;;2.40;99.90;;;;;;5110144;28;20233;-73
2020/12/13 09:10:11;;;;;;;4.10;3.83;;;2.40;99.90;;;;;;5109830;28;20222;-73
2020/12/13 09:12:38;;;;;;;1.08;1.08;;;2.40;99.90;;;;;;5110001;28;20171;-73
2020/12/13 09:15:12;;;;;;;2.65;2.47;;;2.30;99.90;;;;;;5110064;28;20547;-73
2020/12/13 09:17:40;;;;;;;0.77;0.77;;;2.30;99.90;;;;;;5109644;28;20710;-73
2020/12/13 09:20:06;;;;;;;0.63;0.63;;;2.30;99.90;;;;;;5109989;28;20167;-73
2020/12/13 09:22:33;;;;;;;1.23;1.23;;;2.30;99.90;;;;;;5110805;28;20194;-73
2020/12/13 09:25:00;;;;;;;1.83;1.75;;;2.30;99.90;;;;;;5111907;28;20164;-73
2020/12/13 09:27:27;;;;;;;1.35;1.35;;;2.30;99.90;;;;;;5110733;28;20183;-72
2020/12/13 09:29:54;;;;;;;0.30;0.30;;;2.30;99.90;;;;;;5111763;28;20202;-73
2020/12/13 09:32:21;;;;;;;0.35;0.35;;;2.20;99.90;;;;;;5111983;28;20182;-73
2020/12/13 09:34:48;;;;;;;0.82;0.82;;;2.20;99.90;;;;;;5111895;28;20234;-73
2020/12/13 09:37:16;;;;;;;1.02;1.02;;;2.20;99.90;;;;;;5111647;28;20190;-73
2020/12/13 09:39:42;;;;;;;0.50;0.50;;;2.20;99.90;;;;;;5111731;28;20328;-73
2020/12/13 09:42:10;;;;;;;1.65;1.65;;;2.30;99.90;;;;;;5111380;28;20219;-73
2020/12/13 09:44:36;;;;;;;0.80;0.80;;;2.30;99.90;;;;;;5111633;28;20175;-73
2020/12/13 09:47:03;;;;;;;0.57;0.57;;;2.40;99.90;;;;;;5094137;28;20211;-73
2020/12/13 09:49:30;;;;;;;0.10;0.10;;;2.50;99.90;;;;;;5109404;28;20258;-73
2020/12/13 09:52:01;;;;;;;1.83;1.73;;;2.60;99.90;;;;;;5086168;28;20172;-73
2020/12/13 09:54:28;;;;;;;1.35;1.35;;;2.50;99.90;;;;;;5090704;28;20163;-73
2020/12/13 09:56:55;;;;;;;1.83;1.73;;;2.50;99.90;;;;;;5090589;28;20207;-73
2020/12/13 09:59:21;;;;;;;0.10;0.10;;;2.60;99.90;;;;;;5090505;28;20160;-73
2020/12/13 10:01:48;;;;;;;0.93;0.93;;;2.50;99.90;;;;;;5090543;28;20176;-73
2020/12/13 10:04:16;;;;;;;0.60;0.60;;;2.50;99.90;;;;;;5097731;28;20167;-73
2020/12/13 10:09:12;;;;;;;2.97;2.10;;;2.60;99.90;;;;;;5110534;28;20190;-73
2020/12/13 10:11:40;;;;;;;0.65;0.65;;;2.70;99.90;;;;;;5110576;28;20147;-73
2020/12/13 10:14:11;;;;;;;2.30;2.20;;;2.80;99.90;;;;;;5110551;28;20159;-73
2020/12/13 10:16:43;;;;;;;0.50;0.50;;;3.00;99.90;;;;;;5110412;28;20197;-73
2020/12/13 10:19:09;;;;;;;0.20;0.20;;;3.00;99.90;;;;;;5110453;28;20155;-73
2020/12/13 10:21:36;;;;;;;0.90;0.85;;;2.90;99.90;;;;;;5096358;28;20176;-73
2020/12/13 10:24:03;;;;;;;2.00;1.90;;;3.00;99.90;;;;;;5106226;28;20179;-73
2020/12/13 10:26:32;;;;;;;1.17;1.15;;;3.00;99.90;;;;;;5089745;28;20202;-73
2020/12/13 10:28:59;;;;;;;0.45;0.45;;;3.20;99.90;;;;;;5098104;28;20224;-73
2020/12/13 10:31:41;;;;;;;0.50;0.50;;;3.30;99.90;;;;;;5108906;28;20261;-73
2020/12/13 10:34:09;;;;;;;1.27;1.27;;;3.40;99.90;;;;;;5110091;28;20168;-73
2020/12/13 10:36:36;;;;;;;1.85;1.75;;;3.60;99.90;;;;;;5090685;28;20207;-74
2020/12/13 10:39:07;;;;;;;3.95;1.25;;;3.80;99.90;;;;;;5108961;28;20175;-73
2020/12/13 10:41:34;;;;;;;6.20;1.27;;;3.80;99.90;;;;;;5110280;28;20290;-72
2020/12/13 10:44:00;;;;;;;0.73;0.73;;;3.70;99.90;;;;;;5108963;28;20171;-73
2020/12/13 10:46:26;;;;;;;1.13;1.13;;;3.90;99.90;;;;;;5110379;28;20184;-73
2020/12/13 10:48:52;;;;;;;0.93;0.93;;;4.00;99.90;;;;;;5110356;28;20214;-73
2020/12/13 10:51:18;;;;;;;0.70;0.70;;;4.20;99.90;;;;;;5074074;28;20930;-73
2020/12/13 10:53:45;;;;;;;1.10;0.82;;;4.50;99.90;;;;;;5085141;28;20566;-73
2020/12/13 10:56:12;;;;;;;1.23;1.15;;;4.30;99.90;;;;;;5109607;28;20187;-73
2020/12/13 10:58:41;;;;;;;2.38;2.22;;;4.30;99.90;;;;;;5109719;28;20160;-73
2020/12/13 11:01:09;;;;;;;1.45;1.38;;;4.50;99.90;;;;;;5099917;28;20186;-73
2020/12/13 11:03:35;;;;;;;1.67;1.60;;;4.70;99.90;;;;;;5089562;28;20156;-73
2020/12/13 11:06:01;;;;;;;0.80;0.80;;;4.60;99.90;;;;;;5089386;28;20191;-73
2020/12/13 11:08:27;;;;;;;1.80;1.77;;;4.40;99.90;;;;;;5089685;28;20192;-73
2020/12/13 11:10:52;;;;;;;1.45;1.42;;;4.70;99.90;;;;;;5088612;28;20164;-73
2020/12/13 11:13:19;;;;;;;0.75;0.75;;;4.70;99.90;;;;;;5089559;28;20156;-73
2020/12/13 11:15:46;;;;;;;0.30;0.30;;;4.80;99.90;;;;;;5083964;28;20180;-71
2020/12/13 11:18:12;;;;;;;1.45;1.45;;;4.80;99.90;;;;;;5089425;28;20191;-72
2020/12/13 11:20:39;;;;;;;1.65;1.58;;;4.60;99.90;;;;;;5089384;28;20219;-71
2020/12/13 11:23:05;;;;;;;3.90;3.67;;;4.70;99.90;;;;;;5089644;28;20161;-71
2020/12/13 11:25:31;;;;;;;0.77;0.77;;;4.90;99.90;;;;;;5089446;28;20225;-71
2020/12/13 11:27:58;;;;;;;0.57;0.43;;;5.80;99.90;;;;;;5092256;28;20190;-73
2020/12/13 11:30:24;;;;;;;1.65;1.58;;;7.30;99.90;;;;;;5108091;28;20199;-72
2020/12/13 11:32:50;;;;;;;4.32;3.95;;;8.30;99.90;;;;;;5109587;28;20206;-72
2020/12/13 11:35:17;;;;;;;3.47;2.22;;;9.70;99.90;;;;;;5109628;28;20162;-72
2020/12/13 11:37:43;;;;;;;3.05;2.92;;;10.10;99.90;;;;;;5108109;28;20191;-72
2020/12/13 11:40:09;;;;;;;1.70;1.70;;;10.10;99.90;;;;;;5109344;28;20223;-74
2020/12/13 11:42:35;;;;;;;1.88;1.77;;;10.10;99.90;;;;;;5107997;28;20234;-73
2020/12/13 11:45:03;;;;;;;1.60;1.33;;;10.60;99.90;;;;;;5108210;28;20178;-72
2020/12/13 11:47:29;;;;;;;1.23;1.13;;;10.60;99.90;;;;;;5109447;28;20213;-73
2020/12/13 11:49:55;;;;;;;5.03;1.98;;;10.30;99.90;;;;;;5107392;28;20221;-73
2020/12/13 11:52:21;;;;;;;2.35;1.77;;;10.00;99.90;;;;;;5109259;28;20635;-73
2020/12/13 11:54:47;;;;;;;10.40;3.80;;;9.70;99.90;;;;;;5109268;28;20183;-73
2020/12/13 11:57:13;;;;;;;2.10;1.98;;;10.00;99.90;;;;;;5108971;28;20183;-73
2020/12/13 11:59:40;;;;;;;1.70;1.63;;;9.40;99.90;;;;;;5109361;28;20189;-72
2020/12/13 12:02:06;;;;;;;0.52;0.52;;;8.40;99.90;;;;;;5109142;28;20167;-72
2020/12/13 12:04:32;;;;;;;5.10;1.92;;;8.00;99.90;;;;;;5109195;28;20160;-72
2020/12/13 12:06:59;;;;;;;3.30;3.00;;;7.60;99.90;;;;;;5107855;28;20275;-72
2020/12/13 12:09:25;;;;;;;1.35;1.35;;;6.90;99.90;;;;;;5109102;28;20195;-72
2020/12/13 12:11:51;;;;;;;1.92;1.77;;;6.50;99.90;;;;;;5109123;28;20162;-72
2020/12/13 12:14:17;;;;;;;1.27;1.27;;;6.30;99.90;;;;;;5109154;28;20163;-72
2020/12/13 12:16:44;;;;;;;0.85;0.85;;;5.90;99.90;;;;;;5103500;28;20552;-72
2020/12/13 12:19:11;;;;;;;2.10;1.90;;;5.60;99.90;;;;;;5088636;28;20187;-72
2020/12/13 12:21:44;;;;;;;2.90;2.63;;;5.40;99.90;;;;;;5087266;28;20231;-72
2020/12/13 12:24:10;;;;;;;2.50;2.03;;;5.20;99.90;;;;;;5088838;28;20160;-72
2020/12/13 12:26:36;;;;;;;1.33;1.33;;;5.20;99.90;;;;;;5087327;28;20218;-72
2020/12/13 12:29:04;;;;;;;0.82;0.82;;;5.00;99.90;;;;;;5099585;28;20199;-72
2020/12/13 12:31:29;;;;;;;0.98;0.98;;;5.00;99.90;;;;;;5109002;28;20220;-72
2020/12/13 12:33:55;;;;;;;0.52;0.52;;;5.20;99.90;;;;;;5107616;28;20163;-72
2020/12/13 12:36:24;;;;;;;1.33;1.33;;;5.20;99.90;;;;;;5107349;28;20259;-73
2020/12/13 12:38:51;;;;;;;2.35;2.25;;;5.20;99.90;;;;;;5108980;28;20163;-73
2020/12/13 12:41:19;;;;;;;4.00;2.05;;;5.10;99.90;;;;;;5108798;28;20223;-72
2020/12/13 12:43:46;;;;;;;1.77;1.23;;;5.10;99.90;;;;;;5107401;28;20199;-73
2020/12/13 12:46:12;;;;;;;2.45;2.35;;;5.10;99.90;;;;;;5108808;28;20742;-73
2020/12/13 12:48:39;;;;;;;2.42;0.93;;;5.00;99.90;;;;;;5108812;28;20202;-72
2020/12/13 12:51:08;;;;;;;3.60;3.33;;;5.00;99.90;;;;;;5107405;28;20167;-73
2020/12/13 12:53:35;;;;;;;3.30;1.20;;;4.90;99.90;;;;;;5108667;28;20177;-73
2020/12/13 12:56:06;;;;;;;0.45;0.45;;;4.80;99.90;;;;;;5108786;28;20211;-73
2020/12/13 12:58:41;;;;;;;0.55;0.55;;;4.70;99.90;;;;;;5108594;28;20263;-68
2020/12/13 13:01:11;;;;;;;1.20;1.20;;;4.60;99.90;;;;;;5108593;28;20175;-68
2020/12/13 13:03:37;;;;;;;1.58;1.15;;;4.70;99.90;;;;;;5112410;28;20616;-68
2020/12/13 13:06:24;;;;;;;1.42;1.20;;;4.70;99.90;;;;;;5112103;28;20159;-68
2020/12/13 13:09:37;;;;;;;0.52;0.52;;;4.70;99.90;;;;;;5112277;28;20190;-68
2020/12/13 13:11:38;;;;;;;0.90;0.90;;;4.70;99.90;;;;;;5115084;28;20186;-68